sensor_id;sensor_type;location;lat;lon;timestamp;temperature;humidity
35127;DHT22;21300;52.006;5.798;2024-01-16T00:01:12;-0.80;99.90
35127;DHT22;21300;52.006;5.798;2024-01-16T00:03:39;-0.80;99.90
35127;DHT22;21300;52.006;5.798;2024-01-16T00:06:05;-0.80;99.90
35127;DHT22;21300;52.006;5.798;2024-01-16T00:08:32;-0.90;99.90
35127;DHT22;21300;52.006;5.798;2024-01-16T00:10:57;-0.90;99.90
35127;DHT22;21300;52.006;5.798;2024-01-16T00:13:23;-0.90;99.90
35127;DHT22;21300;52.006;5.798;2024-01-16T00:15:49;-0.90;99.90
35127;DHT22;21300;52.006;5.798;2024-01-16T00:18:15;-1.00;99.90
35127;DHT22;21300;52.006;5.798;2024-01-16T00:20:41;-1.00;99.90
35127;DHT22;21300;52.006;5.798;2024-01-16T00:23:06;-1.00;99.90
35127;DHT22;21300;52.006;5.798;2024-01-16T00:25:32;-1.10;99.90
35127;DHT22;21300;52.006;5.798;2024-01-16T00:27:57;-1.00;99.90
35127;DHT22;21300;52.006;5.798;2024-01-16T00:30:23;-1.00;99.90
35127;DHT22;21300;52.006;5.798;2024-01-16T00:32:49;-1.00;99.90
35127;DHT22;21300;52.006;5.798;2024-01-16T00:35:14;-1.00;99.90
35127;DHT22;21300;52.006;5.798;2024-01-16T00:37:40;-1.00;99.90
35127;DHT22;21300;52.006;5.798;2024-01-16T00:40:06;-1.10;99.90
35127;DHT22;21300;52.006;5.798;2024-01-16T00:42:34;-1.10;99.90
35127;DHT22;21300;52.006;5.798;2024-01-16T00:45:00;-1.10;99.90
35127;DHT22;21300;52.006;5.798;2024-01-16T00:47:26;-1.10;99.90
35127;DHT22;21300;52.006;5.798;2024-01-16T00:49:51;-1.10;99.90
35127;DHT22;21300;52.006;5.798;2024-01-16T00:52:20;-1.10;99.90
35127;DHT22;21300;52.006;5.798;2024-01-16T00:54:46;-1.00;99.90
35127;DHT22;21300;52.006;5.798;2024-01-16T00:57:11;-1.00;99.90
35127;DHT22;21300;52.006;5.798;2024-01-16T00:59:37;-1.00;99.90
35127;DHT22;21300;52.006;5.798;2024-01-16T01:02:03;-1.00;99.90
35127;DHT22;21300;52.006;5.798;2024-01-16T01:04:29;-1.00;99.90
35127;DHT22;21300;52.006;5.798;2024-01-16T01:06:55;-0.90;99.90
35127;DHT22;21300;52.006;5.798;2024-01-16T01:09:21;-0.90;99.90
35127;DHT22;21300;52.006;5.798;2024-01-16T01:11:46;-0.90;99.90
35127;DHT22;21300;52.006;5.798;2024-01-16T01:14:12;-0.90;99.90
35127;DHT22;21300;52.006;5.798;2024-01-16T01:16:38;-0.80;99.90
35127;DHT22;21300;52.006;5.798;2024-01-16T01:19:03;-0.80;99.90
35127;DHT22;21300;52.006;5.798;2024-01-16T01:21:29;-0.80;99.90
35127;DHT22;21300;52.006;5.798;2024-01-16T01:23:55;-0.80;99.90
35127;DHT22;21300;52.006;5.798;2024-01-16T01:26:20;-0.90;99.90
35127;DHT22;21300;52.006;5.798;2024-01-16T01:28:46;-0.90;99.90
35127;DHT22;21300;52.006;5.798;2024-01-16T01:31:12;-0.90;99.90
35127;DHT22;21300;52.006;5.798;2024-01-16T01:33:38;-0.90;99.90
35127;DHT22;21300;52.006;5.798;2024-01-16T01:36:04;-0.90;99.90
35127;DHT22;21300;52.006;5.798;2024-01-16T01:38:30;-0.90;99.90
35127;DHT22;21300;52.006;5.798;2024-01-16T01:40:56;-1.00;99.90
35127;DHT22;21300;52.006;5.798;2024-01-16T01:43:25;-1.00;99.90
35127;DHT22;21300;52.006;5.798;2024-01-16T01:48:32;-1.00;99.90
35127;DHT22;21300;52.006;5.798;2024-01-16T01:50:59;-1.10;99.90
35127;DHT22;21300;52.006;5.798;2024-01-16T01:53:26;-1.00;99.90
35127;DHT22;21300;52.006;5.798;2024-01-16T01:55:52;-1.10;99.90
35127;DHT22;21300;52.006;5.798;2024-01-16T01:58:19;-1.00;99.90
35127;DHT22;21300;52.006;5.798;2024-01-16T02:00:45;-1.00;99.90
35127;DHT22;21300;52.006;5.798;2024-01-16T02:03:10;-1.10;99.90
35127;DHT22;21300;52.006;5.798;2024-01-16T02:05:37;-1.00;99.90
35127;DHT22;21300;52.006;5.798;2024-01-16T02:08:04;-1.00;99.90
35127;DHT22;21300;52.006;5.798;2024-01-16T02:10:30;-1.10;99.90
35127;DHT22;21300;52.006;5.798;2024-01-16T02:12:56;-1.00;99.90
35127;DHT22;21300;52.006;5.798;2024-01-16T02:15:23;-1.10;99.90
35127;DHT22;21300;52.006;5.798;2024-01-16T02:17:49;-1.10;99.90
35127;DHT22;21300;52.006;5.798;2024-01-16T02:20:15;-1.10;99.90
35127;DHT22;21300;52.006;5.798;2024-01-16T02:22:42;-1.10;99.90
35127;DHT22;21300;52.006;5.798;2024-01-16T02:25:10;-1.10;99.90
35127;DHT22;21300;52.006;5.798;2024-01-16T02:27:36;-1.10;99.90
35127;DHT22;21300;52.006;5.798;2024-01-16T02:30:02;-1.00;99.90
35127;DHT22;21300;52.006;5.798;2024-01-16T02:32:28;-1.00;99.90
35127;DHT22;21300;52.006;5.798;2024-01-16T02:34:53;-0.90;99.90
35127;DHT22;21300;52.006;5.798;2024-01-16T02:37:22;-0.90;99.90
35127;DHT22;21300;52.006;5.798;2024-01-16T02:39:48;-0.80;99.90
35127;DHT22;21300;52.006;5.798;2024-01-16T02:42:14;-0.70;99.90
35127;DHT22;21300;52.006;5.798;2024-01-16T02:44:40;-0.70;99.90
35127;DHT22;21300;52.006;5.798;2024-01-16T02:47:05;-0.70;99.90
35127;DHT22;21300;52.006;5.798;2024-01-16T02:49:32;-0.60;99.90
35127;DHT22;21300;52.006;5.798;2024-01-16T02:51:58;-0.60;99.90
35127;DHT22;21300;52.006;5.798;2024-01-16T02:54:24;-0.60;99.90
35127;DHT22;21300;52.006;5.798;2024-01-16T02:56:50;-0.50;99.90
35127;DHT22;21300;52.006;5.798;2024-01-16T02:59:15;-0.50;99.90
35127;DHT22;21300;52.006;5.798;2024-01-16T03:01:41;-0.50;99.90
35127;DHT22;21300;52.006;5.798;2024-01-16T03:04:07;-0.50;99.90
35127;DHT22;21300;52.006;5.798;2024-01-16T03:06:32;-0.50;99.90
35127;DHT22;21300;52.006;5.798;2024-01-16T03:08:58;-0.50;99.90
35127;DHT22;21300;52.006;5.798;2024-01-16T03:11:24;-0.50;99.90
35127;DHT22;21300;52.006;5.798;2024-01-16T03:13:50;-0.40;99.90
35127;DHT22;21300;52.006;5.798;2024-01-16T03:16:17;-0.40;99.90
35127;DHT22;21300;52.006;5.798;2024-01-16T03:18:43;-0.40;99.90
35127;DHT22;21300;52.006;5.798;2024-01-16T03:21:10;-0.40;99.90
35127;DHT22;21300;52.006;5.798;2024-01-16T03:23:35;-0.40;99.90
35127;DHT22;21300;52.006;5.798;2024-01-16T03:26:01;-0.40;99.90
35127;DHT22;21300;52.006;5.798;2024-01-16T03:28:27;-0.40;99.90
35127;DHT22;21300;52.006;5.798;2024-01-16T03:30:52;-0.40;99.90
35127;DHT22;21300;52.006;5.798;2024-01-16T03:33:19;-0.40;99.90
35127;DHT22;21300;52.006;5.798;2024-01-16T03:35:45;-0.40;99.90
35127;DHT22;21300;52.006;5.798;2024-01-16T03:38:12;-0.40;99.90
35127;DHT22;21300;52.006;5.798;2024-01-16T03:40:38;-0.40;99.90
35127;DHT22;21300;52.006;5.798;2024-01-16T03:43:03;-0.40;99.90
35127;DHT22;21300;52.006;5.798;2024-01-16T03:45:30;-0.40;99.90
35127;DHT22;21300;52.006;5.798;2024-01-16T03:47:57;-0.40;99.90
35127;DHT22;21300;52.006;5.798;2024-01-16T03:50:22;-0.40;99.90
35127;DHT22;21300;52.006;5.798;2024-01-16T03:52:48;-0.40;99.90
35127;DHT22;21300;52.006;5.798;2024-01-16T03:55:13;-0.40;99.90
35127;DHT22;21300;52.006;5.798;2024-01-16T03:57:39;-0.40;99.90
35127;DHT22;21300;52.006;5.798;2024-01-16T04:00:05;-0.40;99.90
35127;DHT22;21300;52.006;5.798;2024-01-16T04:02:31;-0.30;99.90
35127;DHT22;21300;52.006;5.798;2024-01-16T04:04:57;-0.30;99.90
35127;DHT22;21300;52.006;5.798;2024-01-16T04:07:23;-0.30;99.90
35127;DHT22;21300;52.006;5.798;2024-01-16T04:09:52;-0.30;99.90
35127;DHT22;21300;52.006;5.798;2024-01-16T04:12:17;-0.30;99.90
35127;DHT22;21300;52.006;5.798;2024-01-16T04:14:43;-0.30;99.90
35127;DHT22;21300;52.006;5.798;2024-01-16T04:17:08;-0.30;99.90
35127;DHT22;21300;52.006;5.798;2024-01-16T04:19:34;-0.30;99.90
35127;DHT22;21300;52.006;5.798;2024-01-16T04:22:06;-0.30;99.90
35127;DHT22;21300;52.006;5.798;2024-01-16T04:24:32;-0.30;99.90
35127;DHT22;21300;52.006;5.798;2024-01-16T04:27:05;-0.20;99.90
35127;DHT22;21300;52.006;5.798;2024-01-16T04:29:30;-0.20;99.90
35127;DHT22;21300;52.006;5.798;2024-01-16T04:31:56;-0.20;99.90
35127;DHT22;21300;52.006;5.798;2024-01-16T04:34:22;-0.20;99.90
35127;DHT22;21300;52.006;5.798;2024-01-16T04:36:48;-0.20;99.90
35127;DHT22;21300;52.006;5.798;2024-01-16T04:39:13;-0.20;99.90
35127;DHT22;21300;52.006;5.798;2024-01-16T04:41:39;-0.20;99.90
35127;DHT22;21300;52.006;5.798;2024-01-16T04:44:05;-0.30;99.90
35127;DHT22;21300;52.006;5.798;2024-01-16T04:46:30;-0.30;99.90
35127;DHT22;21300;52.006;5.798;2024-01-16T04:48:56;-0.30;99.90
35127;DHT22;21300;52.006;5.798;2024-01-16T04:51:22;-0.30;99.90
35127;DHT22;21300;52.006;5.798;2024-01-16T04:53:47;-0.30;99.90
35127;DHT22;21300;52.006;5.798;2024-01-16T04:56:13;-0.40;99.90
35127;DHT22;21300;52.006;5.798;2024-01-16T04:58:39;-0.40;99.90
35127;DHT22;21300;52.006;5.798;2024-01-16T05:01:04;-0.40;99.90
35127;DHT22;21300;52.006;5.798;2024-01-16T05:03:30;-0.40;99.90
35127;DHT22;21300;52.006;5.798;2024-01-16T05:05:55;-0.40;99.90
35127;DHT22;21300;52.006;5.798;2024-01-16T05:08:22;-0.40;99.90
35127;DHT22;21300;52.006;5.798;2024-01-16T05:10:48;-0.40;99.90
35127;DHT22;21300;52.006;5.798;2024-01-16T05:13:14;-0.40;99.90
35127;DHT22;21300;52.006;5.798;2024-01-16T05:15:40;-0.40;99.90
35127;DHT22;21300;52.006;5.798;2024-01-16T05:18:06;-0.40;99.90
35127;DHT22;21300;52.006;5.798;2024-01-16T05:20:32;-0.40;99.90
35127;DHT22;21300;52.006;5.798;2024-01-16T05:22:57;-0.30;99.90
35127;DHT22;21300;52.006;5.798;2024-01-16T05:25:23;-0.30;99.90
35127;DHT22;21300;52.006;5.798;2024-01-16T05:27:49;-0.30;99.90
35127;DHT22;21300;52.006;5.798;2024-01-16T05:30:17;-0.30;99.90
35127;DHT22;21300;52.006;5.798;2024-01-16T05:32:43;-0.30;99.90
35127;DHT22;21300;52.006;5.798;2024-01-16T05:35:08;-0.30;99.90
35127;DHT22;21300;52.006;5.798;2024-01-16T05:37:35;-0.30;99.90
35127;DHT22;21300;52.006;5.798;2024-01-16T05:40:01;-0.30;99.90
35127;DHT22;21300;52.006;5.798;2024-01-16T05:42:29;-0.20;99.90
35127;DHT22;21300;52.006;5.798;2024-01-16T05:44:55;-0.30;99.90
35127;DHT22;21300;52.006;5.798;2024-01-16T05:47:23;-0.20;99.90
35127;DHT22;21300;52.006;5.798;2024-01-16T05:49:51;-0.20;99.90
35127;DHT22;21300;52.006;5.798;2024-01-16T05:52:19;-0.20;99.90
35127;DHT22;21300;52.006;5.798;2024-01-16T05:54:48;-0.20;99.90
35127;DHT22;21300;52.006;5.798;2024-01-16T05:57:14;-0.20;99.90
35127;DHT22;21300;52.006;5.798;2024-01-16T05:59:43;-0.20;99.90
35127;DHT22;21300;52.006;5.798;2024-01-16T06:02:09;-0.20;99.90
35127;DHT22;21300;52.006;5.798;2024-01-16T06:04:36;-0.20;99.90
35127;DHT22;21300;52.006;5.798;2024-01-16T06:07:02;-0.20;99.90
35127;DHT22;21300;52.006;5.798;2024-01-16T06:09:31;-0.20;99.90
35127;DHT22;21300;52.006;5.798;2024-01-16T06:11:57;-0.20;99.90
35127;DHT22;21300;52.006;5.798;2024-01-16T06:14:23;-0.20;99.90
35127;DHT22;21300;52.006;5.798;2024-01-16T06:16:49;-0.20;99.90
35127;DHT22;21300;52.006;5.798;2024-01-16T06:19:16;-0.20;99.90
35127;DHT22;21300;52.006;5.798;2024-01-16T06:21:42;-0.20;99.90
35127;DHT22;21300;52.006;5.798;2024-01-16T06:24:08;-0.20;99.90
35127;DHT22;21300;52.006;5.798;2024-01-16T06:26:34;-0.20;99.90
35127;DHT22;21300;52.006;5.798;2024-01-16T06:29:00;-0.20;99.90
35127;DHT22;21300;52.006;5.798;2024-01-16T06:31:25;-0.10;99.90
35127;DHT22;21300;52.006;5.798;2024-01-16T06:33:52;-0.10;99.90
35127;DHT22;21300;52.006;5.798;2024-01-16T06:36:17;-0.10;99.90
35127;DHT22;21300;52.006;5.798;2024-01-16T06:38:43;-0.10;99.90
35127;DHT22;21300;52.006;5.798;2024-01-16T06:41:09;-0.10;99.90
35127;DHT22;21300;52.006;5.798;2024-01-16T06:43:35;-0.10;99.90
35127;DHT22;21300;52.006;5.798;2024-01-16T06:46:00;-0.10;99.90
35127;DHT22;21300;52.006;5.798;2024-01-16T06:48:26;-0.10;99.90
35127;DHT22;21300;52.006;5.798;2024-01-16T06:50:52;0.00;99.90
35127;DHT22;21300;52.006;5.798;2024-01-16T06:53:18;0.00;99.90
35127;DHT22;21300;52.006;5.798;2024-01-16T06:55:43;0.00;99.90
35127;DHT22;21300;52.006;5.798;2024-01-16T06:58:11;0.00;99.90
35127;DHT22;21300;52.006;5.798;2024-01-16T07:00:37;0.00;99.90
35127;DHT22;21300;52.006;5.798;2024-01-16T07:03:03;0.00;99.90
35127;DHT22;21300;52.006;5.798;2024-01-16T07:05:28;0.00;99.90
35127;DHT22;21300;52.006;5.798;2024-01-16T07:07:55;0.00;99.90
35127;DHT22;21300;52.006;5.798;2024-01-16T07:10:20;0.00;99.90
35127;DHT22;21300;52.006;5.798;2024-01-16T07:12:50;0.00;99.90
35127;DHT22;21300;52.006;5.798;2024-01-16T07:15:17;0.00;99.90
35127;DHT22;21300;52.006;5.798;2024-01-16T07:17:43;0.00;99.90
35127;DHT22;21300;52.006;5.798;2024-01-16T07:20:10;0.00;99.90
35127;DHT22;21300;52.006;5.798;2024-01-16T07:22:37;0.00;99.90
35127;DHT22;21300;52.006;5.798;2024-01-16T07:25:03;0.00;99.90
35127;DHT22;21300;52.006;5.798;2024-01-16T07:27:28;0.00;99.90
35127;DHT22;21300;52.006;5.798;2024-01-16T07:29:54;0.00;99.90
35127;DHT22;21300;52.006;5.798;2024-01-16T07:32:19;0.00;99.90
35127;DHT22;21300;52.006;5.798;2024-01-16T07:34:45;0.00;99.90
35127;DHT22;21300;52.006;5.798;2024-01-16T07:37:11;0.00;99.90
35127;DHT22;21300;52.006;5.798;2024-01-16T07:39:36;0.00;99.90
35127;DHT22;21300;52.006;5.798;2024-01-16T07:42:02;0.00;99.90
35127;DHT22;21300;52.006;5.798;2024-01-16T07:44:28;0.00;99.90
35127;DHT22;21300;52.006;5.798;2024-01-16T07:46:54;0.00;99.90
35127;DHT22;21300;52.006;5.798;2024-01-16T07:49:19;0.00;99.90
35127;DHT22;21300;52.006;5.798;2024-01-16T07:51:45;0.00;99.90
35127;DHT22;21300;52.006;5.798;2024-01-16T07:54:11;0.00;99.90
35127;DHT22;21300;52.006;5.798;2024-01-16T07:56:38;0.00;99.90
35127;DHT22;21300;52.006;5.798;2024-01-16T07:59:04;0.00;99.90
35127;DHT22;21300;52.006;5.798;2024-01-16T08:01:30;0.00;99.90
35127;DHT22;21300;52.006;5.798;2024-01-16T08:03:56;0.00;99.90
35127;DHT22;21300;52.006;5.798;2024-01-16T08:06:22;0.00;99.90
35127;DHT22;21300;52.006;5.798;2024-01-16T08:08:48;0.00;99.90
35127;DHT22;21300;52.006;5.798;2024-01-16T08:11:14;0.00;99.90
35127;DHT22;21300;52.006;5.798;2024-01-16T08:13:40;0.00;99.90
35127;DHT22;21300;52.006;5.798;2024-01-16T08:16:06;0.00;99.90
35127;DHT22;21300;52.006;5.798;2024-01-16T08:18:32;0.00;99.90
35127;DHT22;21300;52.006;5.798;2024-01-16T08:20:58;0.00;99.90
35127;DHT22;21300;52.006;5.798;2024-01-16T08:23:23;0.00;99.90
35127;DHT22;21300;52.006;5.798;2024-01-16T08:25:49;0.00;99.90
35127;DHT22;21300;52.006;5.798;2024-01-16T08:28:17;0.00;99.90
35127;DHT22;21300;52.006;5.798;2024-01-16T08:30:42;0.00;99.90
35127;DHT22;21300;52.006;5.798;2024-01-16T08:33:08;0.00;99.90
35127;DHT22;21300;52.006;5.798;2024-01-16T08:35:34;0.00;99.90
35127;DHT22;21300;52.006;5.798;2024-01-16T08:37:59;0.00;99.90
35127;DHT22;21300;52.006;5.798;2024-01-16T08:40:25;-0.10;99.90
35127;DHT22;21300;52.006;5.798;2024-01-16T08:42:51;0.00;99.90
35127;DHT22;21300;52.006;5.798;2024-01-16T08:45:20;0.00;99.90
35127;DHT22;21300;52.006;5.798;2024-01-16T08:47:46;-0.10;99.90
35127;DHT22;21300;52.006;5.798;2024-01-16T08:50:12;-0.10;99.90
35127;DHT22;21300;52.006;5.798;2024-01-16T08:52:38;-0.10;99.90
35127;DHT22;21300;52.006;5.798;2024-01-16T08:55:04;0.00;99.90
35127;DHT22;21300;52.006;5.798;2024-01-16T08:57:32;-0.10;99.90
35127;DHT22;21300;52.006;5.798;2024-01-16T08:59:58;0.00;99.90
35127;DHT22;21300;52.006;5.798;2024-01-16T09:02:23;-0.10;99.90
35127;DHT22;21300;52.006;5.798;2024-01-16T09:04:49;-0.10;99.90
35127;DHT22;21300;52.006;5.798;2024-01-16T09:07:16;-0.10;99.90
35127;DHT22;21300;52.006;5.798;2024-01-16T09:09:42;-0.10;99.90
35127;DHT22;21300;52.006;5.798;2024-01-16T09:12:11;-0.10;99.90
35127;DHT22;21300;52.006;5.798;2024-01-16T09:14:37;-0.10;99.90
35127;DHT22;21300;52.006;5.798;2024-01-16T09:17:03;-0.10;99.90
35127;DHT22;21300;52.006;5.798;2024-01-16T09:19:29;0.00;99.90
35127;DHT22;21300;52.006;5.798;2024-01-16T09:21:55;0.00;99.90
35127;DHT22;21300;52.006;5.798;2024-01-16T09:24:22;0.00;99.90
35127;DHT22;21300;52.006;5.798;2024-01-16T09:26:47;0.00;99.90
35127;DHT22;21300;52.006;5.798;2024-01-16T09:29:13;0.10;99.90
35127;DHT22;21300;52.006;5.798;2024-01-16T09:31:40;0.00;99.90
35127;DHT22;21300;52.006;5.798;2024-01-16T09:34:06;0.10;99.90
35127;DHT22;21300;52.006;5.798;2024-01-16T09:36:32;0.10;99.90
35127;DHT22;21300;52.006;5.798;2024-01-16T09:38:58;0.10;99.90
35127;DHT22;21300;52.006;5.798;2024-01-16T09:41:23;0.10;99.90
35127;DHT22;21300;52.006;5.798;2024-01-16T09:43:50;0.10;99.90
35127;DHT22;21300;52.006;5.798;2024-01-16T09:46:17;0.10;99.90
35127;DHT22;21300;52.006;5.798;2024-01-16T09:48:46;0.10;99.90
35127;DHT22;21300;52.006;5.798;2024-01-16T09:51:12;0.10;99.90
35127;DHT22;21300;52.006;5.798;2024-01-16T09:53:42;0.10;99.90
35127;DHT22;21300;52.006;5.798;2024-01-16T09:56:21;0.10;99.90
35127;DHT22;21300;52.006;5.798;2024-01-16T09:58:49;0.00;99.90
35127;DHT22;21300;52.006;5.798;2024-01-16T10:01:15;0.00;99.90
35127;DHT22;21300;52.006;5.798;2024-01-16T10:03:44;0.00;99.90
35127;DHT22;21300;52.006;5.798;2024-01-16T10:06:11;0.00;99.90
35127;DHT22;21300;52.006;5.798;2024-01-16T10:08:37;-0.10;99.90
35127;DHT22;21300;52.006;5.798;2024-01-16T10:11:03;0.00;99.90
35127;DHT22;21300;52.006;5.798;2024-01-16T10:13:29;0.00;99.90
35127;DHT22;21300;52.006;5.798;2024-01-16T10:15:55;0.00;99.90
35127;DHT22;21300;52.006;5.798;2024-01-16T10:18:28;0.00;99.90
35127;DHT22;21300;52.006;5.798;2024-01-16T10:21:00;0.00;99.90
35127;DHT22;21300;52.006;5.798;2024-01-16T10:23:27;0.10;99.90
35127;DHT22;21300;52.006;5.798;2024-01-16T10:28:32;0.00;99.90
35127;DHT22;21300;52.006;5.798;2024-01-16T10:31:09;0.10;99.90
35127;DHT22;21300;52.006;5.798;2024-01-16T10:33:36;0.00;99.90
35127;DHT22;21300;52.006;5.798;2024-01-16T10:36:13;0.00;99.90
35127;DHT22;21300;52.006;5.798;2024-01-16T10:38:40;0.00;99.90
35127;DHT22;21300;52.006;5.798;2024-01-16T10:41:09;0.00;99.90
35127;DHT22;21300;52.006;5.798;2024-01-16T10:43:35;0.00;99.90
35127;DHT22;21300;52.006;5.798;2024-01-16T10:48:35;0.00;99.90
35127;DHT22;21300;52.006;5.798;2024-01-16T10:51:02;0.00;99.90
35127;DHT22;21300;52.006;5.798;2024-01-16T10:53:34;0.00;99.90
35127;DHT22;21300;52.006;5.798;2024-01-16T10:56:01;0.10;99.90
35127;DHT22;21300;52.006;5.798;2024-01-16T10:58:30;0.10;99.90
35127;DHT22;21300;52.006;5.798;2024-01-16T11:01:00;0.20;99.90
35127;DHT22;21300;52.006;5.798;2024-01-16T11:06:09;0.30;99.90
35127;DHT22;21300;52.006;5.798;2024-01-16T11:08:37;0.30;99.90
35127;DHT22;21300;52.006;5.798;2024-01-16T11:11:04;0.30;99.90
35127;DHT22;21300;52.006;5.798;2024-01-16T11:13:34;0.40;99.90
35127;DHT22;21300;52.006;5.798;2024-01-16T11:16:03;0.40;99.90
35127;DHT22;21300;52.006;5.798;2024-01-16T11:18:31;0.50;99.90
35127;DHT22;21300;52.006;5.798;2024-01-16T11:20:58;0.50;99.90
35127;DHT22;21300;52.006;5.798;2024-01-16T11:23:25;0.60;99.90
35127;DHT22;21300;52.006;5.798;2024-01-16T11:25:50;0.70;99.90
35127;DHT22;21300;52.006;5.798;2024-01-16T11:28:16;0.80;99.90
35127;DHT22;21300;52.006;5.798;2024-01-16T11:30:42;0.80;99.90
35127;DHT22;21300;52.006;5.798;2024-01-16T11:35:59;1.00;99.90
35127;DHT22;21300;52.006;5.798;2024-01-16T11:38:26;1.10;99.90
35127;DHT22;21300;52.006;5.798;2024-01-16T11:40:54;1.20;99.90
35127;DHT22;21300;52.006;5.798;2024-01-16T11:45:59;1.30;99.90
35127;DHT22;21300;52.006;5.798;2024-01-16T11:48:25;1.30;99.90
35127;DHT22;21300;52.006;5.798;2024-01-16T11:50:52;1.30;99.90
35127;DHT22;21300;52.006;5.798;2024-01-16T11:56:25;1.60;99.90
35127;DHT22;21300;52.006;5.798;2024-01-16T11:59:27;1.70;99.90
35127;DHT22;21300;52.006;5.798;2024-01-16T12:01:58;1.70;99.90
35127;DHT22;21300;52.006;5.798;2024-01-16T12:04:24;1.80;99.90
35127;DHT22;21300;52.006;5.798;2024-01-16T12:06:59;1.80;99.90
35127;DHT22;21300;52.006;5.798;2024-01-16T12:09:26;1.80;99.90
35127;DHT22;21300;52.006;5.798;2024-01-16T12:12:00;1.90;99.90
35127;DHT22;21300;52.006;5.798;2024-01-16T12:14:32;1.90;99.90
35127;DHT22;21300;52.006;5.798;2024-01-16T12:17:11;1.80;99.90
35127;DHT22;21300;52.006;5.798;2024-01-16T12:19:37;1.80;99.90
35127;DHT22;21300;52.006;5.798;2024-01-16T12:22:07;1.80;99.90
35127;DHT22;21300;52.006;5.798;2024-01-16T12:24:37;1.70;99.90
35127;DHT22;21300;52.006;5.798;2024-01-16T12:27:03;1.70;99.90
35127;DHT22;21300;52.006;5.798;2024-01-16T12:29:34;1.80;99.90
35127;DHT22;21300;52.006;5.798;2024-01-16T12:32:12;1.80;99.90
35127;DHT22;21300;52.006;5.798;2024-01-16T12:34:45;1.90;99.90
35127;DHT22;21300;52.006;5.798;2024-01-16T12:37:11;1.90;99.90
35127;DHT22;21300;52.006;5.798;2024-01-16T12:39:38;2.00;99.90
35127;DHT22;21300;52.006;5.798;2024-01-16T12:42:04;2.00;99.90
35127;DHT22;21300;52.006;5.798;2024-01-16T12:44:33;2.00;99.90
35127;DHT22;21300;52.006;5.798;2024-01-16T12:46:59;1.90;99.90
35127;DHT22;21300;52.006;5.798;2024-01-16T12:49:27;1.80;99.90
35127;DHT22;21300;52.006;5.798;2024-01-16T12:52:22;1.70;99.90
35127;DHT22;21300;52.006;5.798;2024-01-16T12:55:01;1.60;99.90
35127;DHT22;21300;52.006;5.798;2024-01-16T12:57:27;1.60;99.90
35127;DHT22;21300;52.006;5.798;2024-01-16T12:59:53;1.60;99.90
35127;DHT22;21300;52.006;5.798;2024-01-16T13:02:25;1.60;99.90
35127;DHT22;21300;52.006;5.798;2024-01-16T13:04:58;1.60;99.90
35127;DHT22;21300;52.006;5.798;2024-01-16T13:07:25;1.60;99.90
35127;DHT22;21300;52.006;5.798;2024-01-16T13:10:06;1.60;99.90
35127;DHT22;21300;52.006;5.798;2024-01-16T13:12:31;1.60;99.90
35127;DHT22;21300;52.006;5.798;2024-01-16T13:15:05;1.60;99.90
35127;DHT22;21300;52.006;5.798;2024-01-16T13:17:32;1.70;99.90
35127;DHT22;21300;52.006;5.798;2024-01-16T13:20:01;1.70;99.90
35127;DHT22;21300;52.006;5.798;2024-01-16T13:22:29;1.80;99.90
35127;DHT22;21300;52.006;5.798;2024-01-16T13:24:54;1.80;99.90
35127;DHT22;21300;52.006;5.798;2024-01-16T13:27:21;1.80;99.90
35127;DHT22;21300;52.006;5.798;2024-01-16T13:29:47;1.80;99.90
35127;DHT22;21300;52.006;5.798;2024-01-16T13:32:13;1.70;99.90
35127;DHT22;21300;52.006;5.798;2024-01-16T13:34:40;1.70;99.90
35127;DHT22;21300;52.006;5.798;2024-01-16T13:37:15;1.70;99.90
35127;DHT22;21300;52.006;5.798;2024-01-16T13:39:43;1.60;99.90
35127;DHT22;21300;52.006;5.798;2024-01-16T13:42:09;1.60;99.90
35127;DHT22;21300;52.006;5.798;2024-01-16T13:44:35;1.60;99.90
35127;DHT22;21300;52.006;5.798;2024-01-16T13:47:01;1.60;99.90
35127;DHT22;21300;52.006;5.798;2024-01-16T13:49:27;1.60;99.90
35127;DHT22;21300;52.006;5.798;2024-01-16T13:51:52;1.60;99.90
35127;DHT22;21300;52.006;5.798;2024-01-16T13:54:18;1.60;99.90
35127;DHT22;21300;52.006;5.798;2024-01-16T13:56:43;1.60;99.90
35127;DHT22;21300;52.006;5.798;2024-01-16T13:59:09;1.60;99.90
35127;DHT22;21300;52.006;5.798;2024-01-16T14:01:35;1.60;99.90
35127;DHT22;21300;52.006;5.798;2024-01-16T14:04:01;1.60;99.90
35127;DHT22;21300;52.006;5.798;2024-01-16T14:06:26;1.60;99.90
35127;DHT22;21300;52.006;5.798;2024-01-16T14:08:52;1.60;99.90
35127;DHT22;21300;52.006;5.798;2024-01-16T14:11:18;1.50;99.90
35127;DHT22;21300;52.006;5.798;2024-01-16T14:13:44;1.50;99.90
35127;DHT22;21300;52.006;5.798;2024-01-16T14:16:10;1.40;99.90
35127;DHT22;21300;52.006;5.798;2024-01-16T14:18:35;1.40;99.90
35127;DHT22;21300;52.006;5.798;2024-01-16T14:21:01;1.30;99.90
35127;DHT22;21300;52.006;5.798;2024-01-16T14:23:29;1.30;99.90
35127;DHT22;21300;52.006;5.798;2024-01-16T14:25:55;1.20;99.90
35127;DHT22;21300;52.006;5.798;2024-01-16T14:28:21;1.20;99.90
35127;DHT22;21300;52.006;5.798;2024-01-16T14:30:51;1.20;99.90
35127;DHT22;21300;52.006;5.798;2024-01-16T14:33:17;1.10;99.90
35127;DHT22;21300;52.006;5.798;2024-01-16T14:35:42;1.00;99.90
35127;DHT22;21300;52.006;5.798;2024-01-16T14:38:08;1.00;99.90
35127;DHT22;21300;52.006;5.798;2024-01-16T14:40:34;1.00;99.90
35127;DHT22;21300;52.006;5.798;2024-01-16T14:42:59;1.00;99.90
35127;DHT22;21300;52.006;5.798;2024-01-16T14:45:30;1.00;99.90
35127;DHT22;21300;52.006;5.798;2024-01-16T14:47:57;1.00;99.90
35127;DHT22;21300;52.006;5.798;2024-01-16T14:50:23;0.90;99.90
35127;DHT22;21300;52.006;5.798;2024-01-16T14:52:50;0.90;99.90
35127;DHT22;21300;52.006;5.798;2024-01-16T14:55:17;0.80;99.90
35127;DHT22;21300;52.006;5.798;2024-01-16T14:57:43;0.80;99.90
35127;DHT22;21300;52.006;5.798;2024-01-16T15:00:10;0.80;99.90
35127;DHT22;21300;52.006;5.798;2024-01-16T15:02:46;0.80;99.90
35127;DHT22;21300;52.006;5.798;2024-01-16T15:05:16;0.80;99.90
35127;DHT22;21300;52.006;5.798;2024-01-16T15:07:42;0.70;99.90
35127;DHT22;21300;52.006;5.798;2024-01-16T15:10:09;0.70;99.90
35127;DHT22;21300;52.006;5.798;2024-01-16T15:12:39;0.70;99.90
35127;DHT22;21300;52.006;5.798;2024-01-16T15:15:07;0.60;99.90
35127;DHT22;21300;52.006;5.798;2024-01-16T15:17:33;0.60;99.90
35127;DHT22;21300;52.006;5.798;2024-01-16T15:19:58;0.60;99.90
35127;DHT22;21300;52.006;5.798;2024-01-16T15:22:24;0.50;99.90
35127;DHT22;21300;52.006;5.798;2024-01-16T15:24:50;0.40;99.90
35127;DHT22;21300;52.006;5.798;2024-01-16T15:27:15;0.40;99.90
35127;DHT22;21300;52.006;5.798;2024-01-16T15:29:41;0.40;99.90
35127;DHT22;21300;52.006;5.798;2024-01-16T15:32:07;0.40;99.90
35127;DHT22;21300;52.006;5.798;2024-01-16T15:34:33;0.30;99.90
35127;DHT22;21300;52.006;5.798;2024-01-16T15:36:59;0.30;99.90
35127;DHT22;21300;52.006;5.798;2024-01-16T15:39:24;0.30;99.90
35127;DHT22;21300;52.006;5.798;2024-01-16T15:41:50;0.20;99.90
35127;DHT22;21300;52.006;5.798;2024-01-16T15:44:16;0.20;99.90
35127;DHT22;21300;52.006;5.798;2024-01-16T15:47:01;0.10;99.90
35127;DHT22;21300;52.006;5.798;2024-01-16T15:49:28;0.10;99.90
35127;DHT22;21300;52.006;5.798;2024-01-16T15:51:55;0.10;99.90
35127;DHT22;21300;52.006;5.798;2024-01-16T15:54:21;0.00;99.90
35127;DHT22;21300;52.006;5.798;2024-01-16T15:56:47;-0.10;99.90